createdAt,value
2022-08-29T00:00:26.636Z,100474.34
2022-08-29T00:03:00.329Z,100470.78
2022-08-29T00:05:32.770Z,100459.63
2022-08-29T00:08:02.183Z,100463.78
2022-08-29T00:10:32.902Z,100464.06
2022-08-29T00:13:03.138Z,100465.00
2022-08-29T00:15:31.991Z,100465.06
2022-08-29T00:18:10.490Z,100476.72
2022-08-29T00:20:39.334Z,100469.94
2022-08-29T00:23:08.817Z,100469.09
2022-08-29T00:25:37.935Z,100467.22
2022-08-29T00:28:07.989Z,100466.56
2022-08-29T00:30:37.471Z,100464.53
2022-08-29T00:33:06.009Z,100473.28
2022-08-29T00:35:39.499Z,100471.00
2022-08-29T00:38:11.664Z,100478.03
2022-08-29T00:40:51.359Z,100473.88
2022-08-29T00:43:26.389Z,100468.56
2022-08-29T00:46:07.639Z,100469.44
2022-08-29T00:48:38.287Z,100463.66
2022-08-29T00:51:12.590Z,100470.72
2022-08-29T00:53:46.709Z,100475.59
2022-08-29T00:56:18.155Z,100470.63
2022-08-29T00:58:52.828Z,100470.94
2022-08-29T01:01:23.287Z,100477.44
2022-08-29T01:03:52.937Z,100475.97
2022-08-29T01:06:23.378Z,100471.84
2022-08-29T01:08:57.252Z,100475.53
2022-08-29T01:11:47.110Z,100474.88
2022-08-29T01:14:18.148Z,100473.25
2022-08-29T01:16:48.504Z,100476.06
2022-08-29T01:19:41.251Z,100470.72
2022-08-29T01:22:34.948Z,100477.72
2022-08-29T01:25:09.935Z,100475.00
2022-08-29T01:27:41.834Z,100467.84
2022-08-29T01:30:12.327Z,100472.84
2022-08-29T01:32:40.736Z,100475.59
2022-08-29T01:35:10.476Z,100469.38
2022-08-29T01:37:44.041Z,100466.75
2022-08-29T01:40:15.287Z,100475.16
2022-08-29T01:42:44.360Z,100483.91
2022-08-29T01:45:13.261Z,100479.56
2022-08-29T01:47:41.693Z,100479.25
2022-08-29T01:50:14.670Z,100485.88
2022-08-29T01:52:43.425Z,100493.19
2022-08-29T01:55:13.637Z,100493.75
2022-08-29T01:57:42.567Z,100496.34
2022-08-29T02:00:12.905Z,100495.41
2022-08-29T02:02:43.347Z,100495.41
2022-08-29T02:05:11.871Z,100491.22
2022-08-29T02:07:40.786Z,100494.72
2022-08-29T02:10:10.329Z,100498.69
2022-08-29T02:12:40.293Z,100500.34
2022-08-29T02:15:09.938Z,100500.66
2022-08-29T02:17:38.749Z,100492.81
2022-08-29T02:20:09.234Z,100503.84
2022-08-29T02:22:38.972Z,100507.69
2022-08-29T02:25:24.035Z,100507.56
2022-08-29T02:27:53.883Z,100507.00
2022-08-29T02:30:23.309Z,100501.16
2022-08-29T02:32:51.709Z,100507.25
2022-08-29T02:35:20.325Z,100503.66
2022-08-29T02:37:49.534Z,100509.00
2022-08-29T02:40:18.470Z,100508.22
2022-08-29T02:42:46.932Z,100510.72
2022-08-29T02:45:16.735Z,100503.84
2022-08-29T02:47:45.368Z,100514.59
2022-08-29T02:50:14.558Z,100502.41
2022-08-29T02:52:44.240Z,100499.91
2022-08-29T02:55:17.165Z,100491.84
2022-08-29T02:57:46.425Z,100500.09
2022-08-29T03:00:21.520Z,100497.69
2022-08-29T03:02:50.735Z,100501.75
2022-08-29T03:05:22.129Z,100508.09
2022-08-29T03:07:52.210Z,100505.56
2022-08-29T03:10:21.443Z,100508.91
2022-08-29T03:12:50.135Z,100506.47
2022-08-29T03:15:20.520Z,100504.28
2022-08-29T03:17:50.987Z,100503.75
2022-08-29T03:20:22.755Z,100501.75
2022-08-29T03:22:52.797Z,100498.19
2022-08-29T03:25:22.110Z,100498.97
2022-08-29T03:27:50.643Z,100502.56
2022-08-29T03:30:21.395Z,100504.31
2022-08-29T03:32:52.456Z,100500.00
2022-08-29T03:35:22.551Z,100501.03
2022-08-29T03:37:51.840Z,100507.88
2022-08-29T03:40:20.397Z,100512.91
2022-08-29T03:42:49.243Z,100505.78
2022-08-29T03:45:21.903Z,100506.56
2022-08-29T03:47:52.068Z,100509.19
2022-08-29T03:50:21.874Z,100511.81
2022-08-29T03:52:50.596Z,100505.63
2022-08-29T03:55:20.577Z,100507.75
2022-08-29T03:57:49.462Z,100504.16
2022-08-29T04:00:20.527Z,100507.88
2022-08-29T04:02:50.739Z,100505.41
2022-08-29T04:05:19.564Z,100506.28
2022-08-29T04:07:52.139Z,100508.28
2022-08-29T04:10:25.136Z,100500.13
2022-08-29T04:12:55.051Z,100498.31
2022-08-29T04:15:26.810Z,100497.63
2022-08-29T04:17:58.621Z,100503.91
2022-08-29T04:20:30.152Z,100502.03
2022-08-29T04:23:00.020Z,100509.88
2022-08-29T04:25:37.105Z,100510.09
2022-08-29T04:28:06.942Z,100518.84
2022-08-29T04:30:37.924Z,100515.19
2022-08-29T04:33:06.450Z,100514.69
2022-08-29T04:35:37.235Z,100521.81
2022-08-29T04:38:05.673Z,100516.50
2022-08-29T04:40:34.285Z,100515.47
2022-08-29T04:43:02.793Z,100520.28
2022-08-29T04:45:31.146Z,100525.63
2022-08-29T04:48:03.693Z,100525.84
2022-08-29T04:50:32.420Z,100524.81
2022-08-29T04:53:00.812Z,100526.81
2022-08-29T04:55:31.237Z,100517.13
2022-08-29T04:57:59.708Z,100523.28
2022-08-29T05:00:30.629Z,100524.22
2022-08-29T05:03:00.907Z,100530.13
2022-08-29T05:05:29.376Z,100526.84
2022-08-29T05:07:57.745Z,100536.31
2022-08-29T05:10:26.353Z,100535.19
2022-08-29T05:12:54.876Z,100543.13
2022-08-29T05:15:23.284Z,100550.06
2022-08-29T05:17:53.230Z,100552.66
2022-08-29T05:20:23.028Z,100557.97
2022-08-29T05:22:51.418Z,100553.03
2022-08-29T05:25:19.962Z,100555.84
2022-08-29T05:27:48.392Z,100553.88
2022-08-29T05:30:34.619Z,100549.56
2022-08-29T05:33:04.313Z,100548.81
2022-08-29T05:35:35.046Z,100551.72
2022-08-29T05:38:14.990Z,100564.34
2022-08-29T05:40:44.145Z,100556.16
2022-08-29T05:43:12.645Z,100570.22
2022-08-29T05:45:42.878Z,100563.28
2022-08-29T05:48:11.690Z,100559.34
2022-08-29T05:50:44.477Z,100560.47
2022-08-29T05:53:18.893Z,100559.56
2022-08-29T05:55:47.311Z,100559.75
2022-08-29T05:58:15.822Z,100554.06
2022-08-29T06:00:47.270Z,100556.59
2022-08-29T06:03:16.436Z,100559.44
2022-08-29T06:05:52.642Z,100565.66
2022-08-29T06:08:22.057Z,100563.31
2022-08-29T06:10:50.406Z,100567.41
2022-08-29T06:13:18.783Z,100569.41
2022-08-29T06:15:47.356Z,100558.41
2022-08-29T06:18:15.989Z,100567.06
2022-08-29T06:20:46.490Z,100565.09
2022-08-29T06:23:15.206Z,100562.81
2022-08-29T06:25:43.590Z,100567.91
2022-08-29T06:28:11.974Z,100563.28
2022-08-29T06:30:48.223Z,100567.91
2022-08-29T06:33:17.393Z,100572.97
2022-08-29T06:35:47.203Z,100578.63
2022-08-29T06:38:15.895Z,100581.31
2022-08-29T06:40:44.609Z,100581.53
2022-08-29T06:43:12.978Z,100578.34
2022-08-29T06:45:43.137Z,100588.19
2022-08-29T06:48:12.045Z,100583.00
2022-08-29T06:50:45.718Z,100588.09
2022-08-29T06:53:27.351Z,100583.53
2022-08-29T06:56:06.044Z,100590.88
2022-08-29T06:58:34.486Z,100590.28
2022-08-29T07:01:08.106Z,100594.53
2022-08-29T07:03:37.298Z,100591.88
2022-08-29T07:06:06.675Z,100591.31
2022-08-29T07:08:40.858Z,100587.97
2022-08-29T07:11:12.605Z,100584.34
2022-08-29T07:13:41.236Z,100594.81
2022-08-29T07:16:10.874Z,100587.75
2022-08-29T07:18:39.852Z,100588.56
2022-08-29T07:21:09.514Z,100593.31
2022-08-29T07:23:39.450Z,100589.06
2022-08-29T07:26:09.979Z,100602.50
2022-08-29T07:28:40.633Z,100599.44
2022-08-29T07:31:12.868Z,100602.25
2022-08-29T07:33:41.345Z,100607.09
2022-08-29T07:36:10.415Z,100594.78
2022-08-29T07:38:40.567Z,100598.88
2022-08-29T07:41:14.301Z,100591.44
2022-08-29T07:43:44.437Z,100594.56
2022-08-29T07:46:17.117Z,100602.09
2022-08-29T07:48:46.373Z,100598.34
2022-08-29T07:51:18.877Z,100596.97
2022-08-29T07:53:48.705Z,100602.50
2022-08-29T07:56:20.592Z,100601.63
2022-08-29T07:58:50.591Z,100597.94
2022-08-29T08:01:21.033Z,100604.94
2022-08-29T08:03:51.011Z,100590.09
2022-08-29T08:06:20.801Z,100588.50
2022-08-29T08:08:51.801Z,100598.72
2022-08-29T08:11:22.381Z,100590.50
2022-08-29T08:13:51.630Z,100591.94
2022-08-29T08:16:23.721Z,100589.47
2022-08-29T08:18:53.167Z,100590.22
2022-08-29T08:21:22.367Z,100596.41
2022-08-29T08:23:52.966Z,100587.47
2022-08-29T08:26:22.146Z,100604.31
2022-08-29T08:28:50.820Z,100601.56
2022-08-29T08:31:20.213Z,100596.63
2022-08-29T08:33:49.025Z,100599.19
2022-08-29T08:36:22.553Z,100604.97
2022-08-29T08:38:54.724Z,100595.00
2022-08-29T08:41:36.373Z,100595.56
2022-08-29T08:44:08.874Z,100599.56
2022-08-29T08:46:42.115Z,100597.66
2022-08-29T08:49:16.803Z,100602.03
2022-08-29T08:51:52.197Z,100605.34
2022-08-29T08:54:28.071Z,100602.22
2022-08-29T08:57:08.719Z,100604.47
2022-08-29T08:59:43.374Z,100610.44
2022-08-29T09:02:28.074Z,100601.06
2022-08-29T09:05:08.411Z,100596.84
2022-08-29T09:07:51.843Z,100601.53
2022-08-29T09:10:34.911Z,100601.97
2022-08-29T09:13:22.188Z,100590.31
2022-08-29T09:15:55.759Z,100590.72
2022-08-29T09:18:31.559Z,100593.75
2022-08-29T09:21:03.880Z,100596.25
2022-08-29T09:23:44.271Z,100588.25
2022-08-29T09:26:18.015Z,100596.22
2022-08-29T09:28:46.981Z,100596.06
2022-08-29T09:31:25.961Z,100593.06
2022-08-29T09:33:56.843Z,100597.97
2022-08-29T09:36:47.407Z,100598.84
2022-08-29T09:39:21.799Z,100592.72
2022-08-29T09:41:54.013Z,100586.53
2022-08-29T09:44:28.159Z,100588.38
2022-08-29T09:47:11.572Z,100592.47
2022-08-29T09:49:42.671Z,100589.69
2022-08-29T09:52:15.871Z,100582.69
2022-08-29T09:54:45.503Z,100581.75
2022-08-29T09:57:24.613Z,100592.16
2022-08-29T10:00:14.055Z,100591.44
2022-08-29T10:02:48.030Z,100591.91
2022-08-29T10:05:40.625Z,100599.09
2022-08-29T10:08:29.560Z,100589.72
2022-08-29T10:11:02.109Z,100591.75
2022-08-29T10:13:42.116Z,100588.22
2022-08-29T10:16:23.578Z,100583.25
2022-08-29T10:18:57.898Z,100584.03
2022-08-29T10:21:36.409Z,100578.09
2022-08-29T10:24:26.559Z,100576.28
2022-08-29T10:27:04.747Z,100579.09
2022-08-29T10:29:52.392Z,100568.97
2022-08-29T10:32:37.559Z,100573.81
2022-08-29T10:35:16.168Z,100568.19
2022-08-29T10:37:54.387Z,100566.97
2022-08-29T10:40:43.201Z,100572.91
2022-08-29T10:43:35.333Z,100568.56
2022-08-29T10:46:48.938Z,100569.03
2022-08-29T10:49:46.901Z,100570.03
2022-08-29T10:52:23.053Z,100568.44
2022-08-29T10:54:59.968Z,100559.75
2022-08-29T10:57:48.148Z,100557.34
2022-08-29T11:00:21.586Z,100555.88
2022-08-29T11:02:59.793Z,100552.53
2022-08-29T11:05:39.738Z,100552.50
2022-08-29T11:08:16.376Z,100541.47
2022-08-29T11:10:49.856Z,100547.06
2022-08-29T11:13:23.310Z,100550.38
2022-08-29T11:16:04.776Z,100543.34
2022-08-29T11:18:40.905Z,100541.88
2022-08-29T11:21:29.033Z,100539.19
2022-08-29T11:24:03.115Z,100533.72
2022-08-29T11:26:52.388Z,100535.41
2022-08-29T11:29:34.022Z,100544.53
2022-08-29T11:32:11.452Z,100530.69
2022-08-29T11:34:57.117Z,100538.38
2022-08-29T11:37:55.856Z,100531.53
2022-08-29T11:43:39.008Z,100522.25
2022-08-29T11:46:11.614Z,100529.19
2022-08-29T11:48:43.203Z,100517.38
2022-08-29T11:51:36.105Z,100523.94
2022-08-29T11:54:50.410Z,100527.41
2022-08-29T11:57:40.098Z,100516.34
2022-08-29T12:00:36.824Z,100512.81
2022-08-29T12:03:15.146Z,100501.72
2022-08-29T12:06:00.803Z,100497.63
2022-08-29T12:08:38.419Z,100494.22
2022-08-29T12:11:07.716Z,100499.03
2022-08-29T12:14:04.841Z,100492.22
2022-08-29T12:16:50.928Z,100488.50
2022-08-29T12:19:49.675Z,100489.19
2022-08-29T12:22:57.374Z,100487.00
2022-08-29T12:26:09.518Z,100485.81
2022-08-29T12:28:48.323Z,100493.16
2022-08-29T12:32:18.203Z,100490.38
2022-08-29T12:34:54.698Z,100492.50
2022-08-29T12:37:51.138Z,100485.28
2022-08-29T12:40:45.130Z,100485.19
2022-08-29T12:43:37.548Z,100478.69
2022-08-29T12:46:27.242Z,100481.69
2022-08-29T12:49:03.375Z,100478.03
2022-08-29T12:51:43.201Z,100473.34
2022-08-29T12:54:13.837Z,100471.66
2022-08-29T12:56:49.949Z,100472.94
2022-08-29T12:59:20.861Z,100456.78
2022-08-29T13:01:54.377Z,100458.09
2022-08-29T13:04:28.288Z,100452.09
2022-08-29T13:07:05.077Z,100450.41
2022-08-29T13:09:39.300Z,100437.22
2022-08-29T13:12:16.736Z,100431.25
2022-08-29T13:14:58.424Z,100433.91
2022-08-29T13:17:30.971Z,100439.13
2022-08-29T13:20:41.940Z,100431.16
2022-08-29T13:23:26.284Z,100428.91
2022-08-29T13:25:59.925Z,100428.28
2022-08-29T13:28:39.328Z,100427.13
2022-08-29T13:31:23.813Z,100424.88
2022-08-29T13:34:25.224Z,100424.03
2022-08-29T13:37:02.274Z,100431.06
2022-08-29T13:39:44.628Z,100435.72
2022-08-29T13:42:33.570Z,100430.53
2022-08-29T13:45:11.346Z,100429.47
2022-08-29T13:48:13.729Z,100431.59
2022-08-29T13:50:42.505Z,100424.28
2022-08-29T13:53:10.944Z,100429.78
2022-08-29T13:55:42.242Z,100425.00
2022-08-29T13:58:13.034Z,100424.47
2022-08-29T14:00:43.054Z,100414.69
2022-08-29T14:03:12.368Z,100419.59
2022-08-29T14:05:40.978Z,100411.50
2022-08-29T14:08:11.259Z,100412.78
2022-08-29T14:10:40.561Z,100418.41
2022-08-29T14:13:09.117Z,100400.44
2022-08-29T14:15:38.428Z,100409.06
2022-08-29T14:18:08.343Z,100409.59
2022-08-29T14:20:38.997Z,100409.19
2022-08-29T14:23:08.062Z,100400.53
2022-08-29T14:25:36.571Z,100404.94
2022-08-29T14:28:05.535Z,100405.97
2022-08-29T14:30:34.039Z,100403.63
2022-08-29T14:33:02.432Z,100407.25
2022-08-29T14:35:32.460Z,100407.78
2022-08-29T14:38:04.794Z,100402.56
2022-08-29T14:40:39.015Z,100401.84
2022-08-29T14:43:08.838Z,100395.78
2022-08-29T14:45:38.156Z,100395.31
2022-08-29T14:48:07.109Z,100390.09
2022-08-29T14:50:37.307Z,100396.63
2022-08-29T14:53:06.184Z,100393.03
2022-08-29T14:55:34.686Z,100395.03
2022-08-29T14:58:03.529Z,100395.69
2022-08-29T15:00:34.056Z,100393.88
2022-08-29T15:03:02.601Z,100393.44
2022-08-29T15:05:31.769Z,100385.53
2022-08-29T15:08:06.419Z,100385.88
2022-08-29T15:10:35.316Z,100378.31
2022-08-29T15:13:05.147Z,100382.78
2022-08-29T15:15:33.929Z,100384.28
2022-08-29T15:18:05.415Z,100379.81
2022-08-29T15:20:37.192Z,100374.28
2022-08-29T15:23:08.421Z,100371.00
2022-08-29T15:25:37.481Z,100364.72
2022-08-29T15:28:06.846Z,100364.72
2022-08-29T15:30:36.011Z,100372.16
2022-08-29T15:33:04.771Z,100369.94
2022-08-29T15:35:33.536Z,100361.00
2022-08-29T15:38:02.023Z,100371.31
2022-08-29T15:40:32.057Z,100360.50
2022-08-29T15:43:00.857Z,100357.28
2022-08-29T15:45:30.246Z,100361.84
2022-08-29T15:48:00.937Z,100368.56
2022-08-29T15:50:30.653Z,100359.63
2022-08-29T15:52:59.065Z,100359.81
2022-08-29T15:55:27.517Z,100360.50
2022-08-29T15:57:57.432Z,100363.16
2022-08-29T16:00:30.774Z,100364.84
2022-08-29T16:03:04.535Z,100359.06
2022-08-29T16:05:34.453Z,100349.84
2022-08-29T16:08:03.546Z,100357.28
2022-08-29T16:10:33.021Z,100346.34
2022-08-29T16:13:03.041Z,100348.34
2022-08-29T16:15:33.795Z,100351.53
2022-08-29T16:18:03.555Z,100355.34
2022-08-29T16:20:32.345Z,100356.22
2022-08-29T16:23:01.795Z,100350.47
2022-08-29T16:25:32.234Z,100353.66
2022-08-29T16:28:02.308Z,100339.38
2022-08-29T16:30:46.058Z,100343.69
2022-08-29T16:33:15.179Z,100335.63
2022-08-29T16:35:43.648Z,100344.34
2022-08-29T16:38:12.653Z,100341.16
2022-08-29T16:40:41.510Z,100337.13
2022-08-29T16:43:11.640Z,100338.63
2022-08-29T16:45:40.139Z,100344.06
2022-08-29T16:48:14.330Z,100340.09
2022-08-29T16:50:46.211Z,100344.38
2022-08-29T16:53:14.748Z,100339.69
2022-08-29T16:55:43.275Z,100343.72
2022-08-29T16:58:30.378Z,100336.50
2022-08-29T17:00:59.079Z,100335.88
2022-08-29T17:03:27.692Z,100335.34
2022-08-29T17:05:56.406Z,100335.44
2022-08-29T17:08:24.958Z,100338.63
2022-08-29T17:10:52.293Z,100329.28
2022-08-29T17:13:20.944Z,100335.56
2022-08-29T17:15:48.304Z,100339.34
2022-08-29T17:18:17.428Z,100333.97
2022-08-29T17:20:48.414Z,100330.09
2022-08-29T17:23:17.705Z,100334.78
2022-08-29T17:25:46.322Z,100331.38
2022-08-29T17:28:18.025Z,100331.69
2022-08-29T17:30:49.056Z,100330.94
2022-08-29T17:33:18.489Z,100335.50
2022-08-29T17:35:48.288Z,100340.28
2022-08-29T17:38:17.100Z,100336.22
2022-08-29T17:40:47.691Z,100334.63
2022-08-29T17:43:18.711Z,100337.91
2022-08-29T17:45:49.522Z,100340.78
2022-08-29T17:48:18.113Z,100341.91
2022-08-29T17:50:47.182Z,100349.34
2022-08-29T17:53:16.770Z,100346.25
2022-08-29T17:55:45.869Z,100345.41
2022-08-29T17:58:14.999Z,100341.81
2022-08-29T18:00:43.629Z,100344.66
2022-08-29T18:03:13.472Z,100344.22
2022-08-29T18:05:42.068Z,100344.53
2022-08-29T18:08:10.452Z,100348.53
2022-08-29T18:10:39.890Z,100343.63
2022-08-29T18:13:08.395Z,100345.53
2022-08-29T18:15:36.792Z,100349.31
2022-08-29T18:18:05.859Z,100343.69
2022-08-29T18:20:37.538Z,100344.03
2022-08-29T18:23:06.030Z,100353.22
2022-08-29T18:25:36.401Z,100349.38
2022-08-29T18:28:06.796Z,100360.16
2022-08-29T18:30:35.348Z,100351.66
2022-08-29T18:33:03.846Z,100359.72
2022-08-29T18:35:32.369Z,100356.47
2022-08-29T18:38:02.282Z,100357.59
2022-08-29T18:40:30.950Z,100354.47
2022-08-29T18:43:01.674Z,100365.25
2022-08-29T18:45:30.457Z,100362.03
2022-08-29T18:47:59.009Z,100357.13
2022-08-29T18:50:37.609Z,100361.75
2022-08-29T18:53:11.859Z,100363.81
2022-08-29T18:55:43.989Z,100360.53
2022-08-29T18:58:18.398Z,100373.09
2022-08-29T19:00:47.108Z,100374.50
2022-08-29T19:03:15.993Z,100380.84
2022-08-29T19:05:50.551Z,100374.28
2022-08-29T19:08:24.616Z,100374.44
2022-08-29T19:10:55.761Z,100367.66
2022-08-29T19:15:00.863Z,100377.47
2022-08-29T19:16:13.756Z,100380.25
2022-08-29T19:18:43.557Z,100384.97
2022-08-29T19:21:12.036Z,100395.72
2022-08-29T19:23:45.469Z,100391.38
2022-08-29T19:26:17.880Z,100394.22
2022-08-29T19:28:47.769Z,100390.97
2022-08-29T19:31:18.299Z,100389.28
2022-08-29T19:33:47.549Z,100399.34
2022-08-29T19:36:17.392Z,100402.44
2022-08-29T19:38:47.259Z,100393.94
2022-08-29T19:41:16.397Z,100402.88
2022-08-29T19:43:45.629Z,100402.94
2022-08-29T19:46:18.635Z,100397.84
2022-08-29T19:48:51.186Z,100399.91
2022-08-29T19:51:24.565Z,100401.69
2022-08-29T19:53:57.231Z,100400.41
2022-08-29T19:56:26.754Z,100400.59
2022-08-29T19:58:55.677Z,100406.22
2022-08-29T20:01:25.697Z,100405.53
2022-08-29T20:03:55.092Z,100403.13
2022-08-29T20:06:24.244Z,100401.59
2022-08-29T20:08:54.146Z,100400.88
2022-08-29T20:11:25.812Z,100406.44
2022-08-29T20:13:57.591Z,100397.84
2022-08-29T20:16:30.496Z,100407.53
2022-08-29T20:19:00.248Z,100406.69
2022-08-29T20:21:28.855Z,100405.84
2022-08-29T20:23:58.679Z,100403.53
2022-08-29T20:26:31.362Z,100411.97
2022-08-29T20:29:01.783Z,100407.19
2022-08-29T20:31:30.880Z,100411.84
2022-08-29T20:33:59.360Z,100410.41
2022-08-29T20:36:45.454Z,100408.88
2022-08-29T20:39:19.542Z,100414.16
2022-08-29T20:41:51.920Z,100410.72
2022-08-29T20:44:20.760Z,100411.97
2022-08-29T20:46:49.781Z,100420.22
2022-08-29T20:49:21.722Z,100411.56
2022-08-29T20:51:51.645Z,100422.47
2022-08-29T20:54:23.990Z,100427.06
2022-08-29T20:56:53.285Z,100429.09
2022-08-29T20:59:24.653Z,100422.06
2022-08-29T21:01:55.578Z,100424.25
2022-08-29T21:04:41.676Z,100421.22
2022-08-29T21:07:14.142Z,100423.97
2022-08-29T21:09:50.220Z,100424.47
2022-08-29T21:12:20.067Z,100421.38
2022-08-29T21:14:49.350Z,100431.59
2022-08-29T21:17:19.214Z,100427.16
2022-08-29T21:19:47.766Z,100440.81
2022-08-29T21:22:16.490Z,100436.19
2022-08-29T21:24:46.503Z,100444.31
2022-08-29T21:27:15.008Z,100440.88
2022-08-29T21:29:43.724Z,100437.78
2022-08-29T21:32:12.299Z,100438.09
2022-08-29T21:34:40.764Z,100435.81
2022-08-29T21:37:09.348Z,100433.59
2022-08-29T21:39:37.904Z,100436.91
2022-08-29T21:42:08.886Z,100438.56
2022-08-29T21:44:37.531Z,100441.66
2022-08-29T21:47:06.619Z,100436.38
2022-08-29T21:49:35.389Z,100430.06
2022-08-29T21:52:04.504Z,100426.09
2022-08-29T21:54:33.012Z,100434.16
2022-08-29T21:57:01.410Z,100432.63
2022-08-29T21:59:31.232Z,100438.63
2022-08-29T22:02:00.506Z,100437.03
2022-08-29T22:04:29.446Z,100444.53
2022-08-29T22:06:59.722Z,100448.16
2022-08-29T22:09:29.671Z,100446.72
2022-08-29T22:11:58.074Z,100447.09
2022-08-29T22:14:47.784Z,100450.44
2022-08-29T22:17:16.988Z,100452.03
2022-08-29T22:19:45.459Z,100458.44
2022-08-29T22:22:14.015Z,100457.78
2022-08-29T22:24:42.567Z,100460.41
2022-08-29T22:27:11.063Z,100459.56
2022-08-29T22:29:39.559Z,100450.13
2022-08-29T22:32:08.105Z,100457.94
2022-08-29T22:34:37.961Z,100460.56
2022-08-29T22:37:06.855Z,100465.69
2022-08-29T22:39:35.437Z,100469.41
2022-08-29T22:42:03.915Z,100459.00
2022-08-29T22:44:59.729Z,100464.53
2022-08-29T22:47:20.957Z,100465.44
2022-08-29T22:49:50.773Z,100466.75
2022-08-29T22:52:19.332Z,100467.66
2022-08-29T22:54:48.374Z,100479.06
2022-08-29T22:57:19.553Z,100466.75
2022-08-29T22:59:49.659Z,100469.25
2022-08-29T23:02:20.539Z,100472.91
2022-08-29T23:04:52.448Z,100473.84
2022-08-29T23:07:21.256Z,100466.28
2022-08-29T23:09:50.757Z,100469.72
2022-08-29T23:12:19.942Z,100460.03
2022-08-29T23:14:48.498Z,100457.41
2022-08-29T23:17:18.699Z,100455.97
2022-08-29T23:19:49.823Z,100458.72
2022-08-29T23:22:19.845Z,100454.59
2022-08-29T23:24:57.747Z,100454.78
2022-08-29T23:27:28.315Z,100457.53
2022-08-29T23:29:57.093Z,100460.22
2022-08-29T23:32:25.730Z,100458.91
2022-08-29T23:34:54.731Z,100466.00
2022-08-29T23:37:25.196Z,100468.63
2022-08-29T23:39:53.735Z,100465.03
2022-08-29T23:42:22.353Z,100459.88
2022-08-29T23:44:50.782Z,100469.88
2022-08-29T23:47:19.649Z,100467.28
2022-08-29T23:49:48.264Z,100463.94
2022-08-29T23:52:16.854Z,100463.22
2022-08-29T23:54:46.667Z,100464.19
2022-08-29T23:57:15.045Z,100459.06
